Time;durP1;ratioP1;P1;durP2;ratioP2;P2;SDS_P1;SDS_P2;PMS_P1;PMS_P2;Temp;Humidity;BMP_temperature;BMP_pressure;BME280_temperature;BME280_humidity;BME280_pressure;Samples;Min_cycle;Max_cycle;Signal;HPM_P1;HPM_P2
2022/01/20 00:01:59;;;;;;;;;42.00;34.75;;;;;9.04;74.47;102596.16;5047218;28;45344;-76
2022/01/20 00:04:34;;;;;;;;;43.50;37.00;;;;;9.05;74.27;102603.22;5055521;28;45509;-76
2022/01/20 00:26:03;;;;;;;;;31.75;27.25;;;;;8.85;74.18;102597.94;5047036;28;45373;-76
2022/01/20 00:28:46;;;;;;;;;37.00;31.75;;;;;8.83;74.34;102590.78;5058892;28;45544;-76
2022/01/20 00:34:10;;;;;;;;;31.00;27.50;;;;;8.78;74.29;102593.19;5058320;28;45312;-76
2022/01/20 00:39:00;;;;;;;;;32.25;27.50;;;;;8.72;74.45;102592.91;5058553;28;45581;-76
2022/01/20 00:41:26;;;;;;;;;35.50;28.25;;;;;8.70;74.39;102593.69;5057782;28;64271;-76
2022/01/20 00:43:51;;;;;;;;;34.00;27.25;;;;;8.65;74.12;102581.22;5057800;28;58628;-76
2022/01/20 00:46:17;;;;;;;;;38.50;35.50;;;;;8.65;74.35;102588.22;5057903;28;45681;-76
2022/01/20 00:48:42;;;;;;;;;36.25;27.00;;;;;8.61;74.02;102591.53;5058757;28;45622;-76
2022/01/20 00:51:08;;;;;;;;;33.25;29.50;;;;;8.58;73.71;102592.28;5056717;28;63643;-76
2022/01/20 00:53:34;;;;;;;;;33.50;26.75;;;;;8.49;73.76;102585.69;5050106;28;45515;-76
2022/01/20 00:55:59;;;;;;;;;32.00;26.50;;;;;8.51;73.93;102594.53;5057802;28;48634;-76
2022/01/20 00:58:25;;;;;;;;;34.00;29.00;;;;;8.46;73.82;102591.69;5058093;28;45318;-77
2022/01/20 01:00:50;;;;;;;;;33.25;29.50;;;;;8.44;74.08;102590.72;5057737;28;59720;-76
2022/01/20 01:03:15;;;;;;;;;30.75;28.50;;;;;8.39;73.76;102581.72;5057341;28;58573;-77
2022/01/20 01:05:56;;;;;;;;;37.25;29.00;;;;;8.36;73.72;102597.34;5057655;28;45496;-76
2022/01/20 01:08:22;;;;;;;;;33.00;28.50;;;;;8.31;73.78;102601.44;5058392;28;45505;-75
2022/01/20 01:10:50;;;;;;;;;31.00;27.75;;;;;8.29;74.05;102605.75;5057165;28;50694;-75
2022/01/20 01:13:17;;;;;;;;;28.25;24.75;;;;;8.27;73.81;102610.03;5057675;28;45745;-76
2022/01/20 01:15:46;;;;;;;;;31.75;25.25;;;;;8.22;73.94;102609.81;5057482;28;45325;-76
2022/01/20 01:23:36;;;;;;;;;28.50;28.00;;;;;8.18;74.20;102622.72;5057534;28;45267;-75
2022/01/20 01:26:02;;;;;;;;;30.25;25.75;;;;;8.20;74.25;102634.22;5057713;28;45417;-76
2022/01/20 01:28:31;;;;;;;;;31.00;23.75;;;;;8.17;74.32;102645.50;5058180;28;45354;-75
2022/01/20 01:33:22;;;;;;;;;33.00;26.00;;;;;8.17;74.17;102649.88;5057866;28;45445;-76
2022/01/20 01:35:55;;;;;;;;;29.75;25.50;;;;;8.17;74.14;102656.03;5057579;28;45223;-75
2022/01/20 01:38:36;;;;;;;;;33.50;28.00;;;;;8.11;74.19;102640.84;5058108;28;45361;-76
2022/01/20 01:41:07;;;;;;;;;26.00;24.75;;;;;8.13;74.20;102643.56;5056828;28;46648;-76
2022/01/20 01:43:33;;;;;;;;;38.50;28.00;;;;;8.13;74.16;102640.91;5057543;28;45184;-76
2022/01/20 01:46:00;;;;;;;;;29.75;24.50;;;;;8.12;74.03;102640.03;5056834;28;45446;-75
2022/01/20 01:48:26;;;;;;;;;28.25;24.00;;;;;8.10;74.09;102643.41;5057497;28;45321;-76
2022/01/20 01:50:52;;;;;;;;;33.50;24.50;;;;;8.09;73.95;102650.38;5056771;28;46603;-75
2022/01/20 01:53:17;;;;;;;;;32.25;27.25;;;;;8.09;73.82;102673.16;5056916;28;45440;-76
2022/01/20 01:55:43;;;;;;;;;33.75;28.25;;;;;8.04;74.06;102687.81;5057086;28;53456;-76
2022/01/20 01:58:08;;;;;;;;;25.50;22.25;;;;;8.00;74.05;102683.22;5055722;28;45496;-75
2022/01/20 02:00:34;;;;;;;;;28.50;25.00;;;;;8.01;73.99;102695.56;5056796;28;46438;-76
2022/01/20 02:03:00;;;;;;;;;31.00;24.50;;;;;7.97;73.74;102698.84;5056666;28;45701;-76
2022/01/20 02:05:26;;;;;;;;;32.50;27.25;;;;;7.93;73.88;102689.88;5056604;28;45474;-76
2022/01/20 02:20:59;;;;;;;;;31.25;23.00;;;;;7.80;73.97;102697.97;5056904;28;45921;-76
2022/01/20 02:23:26;;;;;;;;;20.75;18.00;;;;;7.78;73.81;102695.28;5055792;28;63588;-75
2022/01/20 02:25:52;;;;;;;;;24.75;20.25;;;;;7.72;73.91;102694.03;5056449;28;45620;-76
2022/01/20 02:28:17;;;;;;;;;27.75;20.00;;;;;7.76;73.85;102704.78;5056353;28;55932;-76
2022/01/20 02:30:43;;;;;;;;;24.25;20.50;;;;;7.73;73.67;102701.13;5056017;28;46567;-75
2022/01/20 02:33:10;;;;;;;;;28.00;18.50;;;;;7.71;73.46;102701.03;5055631;28;45404;-77
2022/01/20 02:35:38;;;;;;;;;18.50;16.50;;;;;7.69;73.77;102701.78;5056324;28;45477;-76
2022/01/20 02:38:22;;;;;;;;;20.50;17.50;;;;;7.67;73.47;102704.34;5056700;28;45276;-76
2022/01/20 02:45:58;;;;;;;;;27.50;20.75;;;;;7.54;73.44;102679.09;5055949;28;45399;-75
2022/01/20 02:48:23;;;;;;;;;23.50;19.00;;;;;7.59;73.48;102680.25;5056603;28;45353;-76
2022/01/20 02:50:49;;;;;;;;;19.50;17.50;;;;;7.55;73.09;102677.38;5055295;28;47285;-76
2022/01/20 02:53:14;;;;;;;;;21.75;16.00;;;;;7.53;73.38;102681.66;5052594;28;62466;-75
2022/01/20 02:55:39;;;;;;;;;25.00;19.00;;;;;7.53;73.33;102693.06;5055817;28;58043;-76
2022/01/20 02:58:05;;;;;;;;;16.00;15.25;;;;;7.51;73.23;102680.66;5056029;28;45542;-75
2022/01/20 03:00:33;;;;;;;;;21.75;15.50;;;;;7.50;73.21;102681.47;5056413;28;46435;-76
2022/01/20 03:02:58;;;;;;;;;19.25;16.50;;;;;7.46;72.74;102688.31;5056205;28;45666;-77
2022/01/20 03:05:24;;;;;;;;;20.00;16.50;;;;;7.42;73.38;102681.09;5055815;28;54701;-77
2022/01/20 03:07:49;;;;;;;;;18.00;14.00;;;;;7.41;72.87;102678.38;5055765;28;56897;-76
2022/01/20 03:10:16;;;;;;;;;19.75;16.75;;;;;7.39;72.88;102680.00;5055406;28;60018;-76
2022/01/20 03:12:41;;;;;;;;;23.00;18.25;;;;;7.40;72.91;102690.59;5054997;28;45507;-75
2022/01/20 03:15:07;;;;;;;;;19.00;13.50;;;;;7.40;73.06;102695.84;5055661;28;45291;-77
2022/01/20 03:17:32;;;;;;;;;18.00;14.50;;;;;7.41;73.05;102702.94;5056111;28;45329;-76
2022/01/20 03:19:58;;;;;;;;;21.25;16.75;;;;;7.31;72.89;102691.03;5055955;28;47246;-76
2022/01/20 03:22:24;;;;;;;;;22.00;17.00;;;;;7.37;72.89;102708.84;5055828;28;45571;-77
2022/01/20 03:24:49;;;;;;;;;19.50;16.00;;;;;7.24;72.67;102693.22;5056081;28;50808;-75
2022/01/20 03:27:15;;;;;;;;;19.50;15.50;;;;;7.30;72.65;102712.88;5055494;28;47038;-75
2022/01/20 03:29:40;;;;;;;;;21.00;15.25;;;;;7.25;72.54;102711.72;5055554;28;46557;-75
2022/01/20 03:32:06;;;;;;;;;21.00;17.25;;;;;7.23;72.75;102709.81;5055408;28;61659;-76
2022/01/20 03:34:31;;;;;;;;;23.50;20.00;;;;;7.22;72.85;102711.53;5055779;28;45452;-76
2022/01/20 03:36:57;;;;;;;;;18.00;15.00;;;;;7.17;72.80;102707.75;5055925;28;54892;-75
2022/01/20 03:39:22;;;;;;;;;17.00;14.25;;;;;7.19;72.16;102719.28;5055494;28;46444;-76
2022/01/20 03:41:47;;;;;;;;;18.75;15.75;;;;;7.16;72.74;102708.56;5054903;28;57756;-76
2022/01/20 03:44:13;;;;;;;;;25.75;18.25;;;;;7.15;72.51;102706.78;5056248;28;45313;-75
2022/01/20 03:46:38;;;;;;;;;14.25;12.75;;;;;7.14;72.78;102723.38;5059336;28;45631;-76
2022/01/20 03:49:24;;;;;;;;;18.75;17.25;;;;;7.12;72.75;102719.72;5059452;28;46348;-76
2022/01/20 03:51:50;;;;;;;;;14.25;12.75;;;;;7.09;72.33;102727.47;5058862;28;45341;-76
2022/01/20 03:54:15;;;;;;;;;17.00;14.00;;;;;7.05;72.25;102733.34;5058992;28;56872;-76
2022/01/20 03:56:40;;;;;;;;;14.25;13.50;;;;;7.03;72.50;102727.09;5058142;28;55216;-75
2022/01/20 03:59:06;;;;;;;;;16.00;14.00;;;;;7.04;72.63;102731.53;5058574;28;62736;-76
2022/01/20 04:01:31;;;;;;;;;18.00;14.50;;;;;7.03;72.51;102735.91;5058310;28;62032;-76
2022/01/20 04:03:57;;;;;;;;;16.00;10.00;;;;;7.03;72.71;102741.16;5057981;28;58376;-76
2022/01/20 04:06:23;;;;;;;;;13.75;13.00;;;;;7.04;72.57;102757.81;5059046;28;45470;-76
2022/01/20 04:08:50;;;;;;;;;18.50;14.00;;;;;6.99;72.48;102747.03;5058583;28;47350;-75
2022/01/20 04:11:23;;;;;;;;;21.00;14.25;;;;;6.99;72.69;102741.78;5058778;28;45497;-76
2022/01/20 04:13:49;;;;;;;;;17.50;15.00;;;;;7.01;72.57;102741.88;5059079;28;45153;-75
2022/01/20 04:16:30;;;;;;;;;19.00;13.50;;;;;6.95;72.33;102725.78;5059316;28;45405;-76
2022/01/20 04:18:56;;;;;;;;;19.75;12.75;;;;;6.99;72.67;102754.03;5057768;28;46697;-76
2022/01/20 04:21:31;;;;;;;;;26.75;15.25;;;;;7.01;72.59;102758.53;5055072;28;45323;-75
2022/01/20 04:23:57;;;;;;;;;15.00;10.00;;;;;7.01;72.49;102755.00;5057944;28;45885;-76
2022/01/20 04:26:23;;;;;;;;;15.75;14.00;;;;;7.01;72.16;102755.00;5058467;28;45426;-76
2022/01/20 04:28:48;;;;;;;;;13.25;9.25;;;;;6.96;72.30;102748.59;5058386;28;46418;-76
2022/01/20 04:31:14;;;;;;;;;14.00;10.00;;;;;6.94;72.18;102750.22;5057785;28;45528;-76
2022/01/20 04:33:40;;;;;;;;;15.50;9.50;;;;;6.94;72.18;102763.34;5058535;28;45565;-76
2022/01/20 04:36:06;;;;;;;;;14.75;10.75;;;;;6.95;72.20;102765.16;5057956;28;45528;-76
2022/01/20 04:38:32;;;;;;;;;14.25;10.50;;;;;6.93;72.52;102759.84;5058612;28;47714;-76
2022/01/20 04:40:57;;;;;;;;;14.25;11.75;;;;;6.94;72.15;102766.00;5057254;28;46172;-76
2022/01/20 04:43:24;;;;;;;;;16.00;11.25;;;;;6.89;72.02;102765.72;5057848;28;45680;-75
2022/01/20 04:45:57;;;;;;;;;18.25;13.00;;;;;6.86;72.03;102764.63;5058774;28;45463;-76
2022/01/20 04:59:00;;;;;;;;;11.50;9.00;;;;;6.69;71.75;102777.69;5057894;28;45696;-76
2022/01/20 05:01:25;;;;;;;;;12.50;8.25;;;;;6.65;71.74;102770.44;5057091;28;45353;-76
2022/01/20 05:03:51;;;;;;;;;10.00;8.25;;;;;6.65;71.73;102785.31;5057959;28;45369;-75
2022/01/20 05:06:16;;;;;;;;;11.75;9.25;;;;;6.63;71.78;102772.09;5058336;28;45682;-75
2022/01/20 05:08:42;;;;;;;;;14.25;9.25;;;;;6.63;71.78;102773.81;5057305;28;56956;-76
2022/01/20 05:11:09;;;;;;;;;14.00;9.00;;;;;6.64;71.99;102765.13;5057574;28;61472;-76
2022/01/20 05:13:40;;;;;;;;;14.00;9.25;;;;;6.65;72.24;102765.19;5057975;28;45431;-76
2022/01/20 05:16:05;;;;;;;;;15.25;10.00;;;;;6.67;71.82;102773.19;5057459;28;45298;-75
2022/01/20 05:18:30;;;;;;;;;9.75;9.00;;;;;6.67;71.67;102762.69;5057754;28;46391;-76
2022/01/20 05:20:56;;;;;;;;;10.25;9.00;;;;;6.60;71.81;102756.16;5056910;28;56279;-77
2022/01/20 05:23:21;;;;;;;;;12.00;5.75;;;;;6.60;71.83;102771.91;5057397;28;57153;-75
2022/01/20 05:25:47;;;;;;;;;11.75;8.50;;;;;6.64;71.84;102786.13;5057388;28;45525;-76
2022/01/20 05:28:12;;;;;;;;;8.50;8.00;;;;;6.62;71.40;102778.16;5057776;28;45382;-76
2022/01/20 05:30:40;;;;;;;;;8.50;7.00;;;;;6.60;71.82;102782.41;5057320;28;59541;-76
2022/01/20 05:33:05;;;;;;;;;8.25;7.50;;;;;6.60;71.75;102782.41;5057732;28;45227;-76
2022/01/20 05:35:30;;;;;;;;;8.75;5.75;;;;;6.62;71.81;102788.66;5057384;28;49416;-75
2022/01/20 05:37:56;;;;;;;;;7.25;6.00;;;;;6.62;71.69;102793.91;5057553;28;46139;-75
2022/01/20 05:40:21;;;;;;;;;8.75;6.00;;;;;6.61;71.46;102794.75;5056888;28;56273;-75
2022/01/20 05:42:47;;;;;;;;;9.25;7.00;;;;;6.59;71.44;102800.69;5039573;28;45204;-76
2022/01/20 05:45:13;;;;;;;;;13.75;5.75;;;;;6.55;71.53;102804.84;5057036;28;47241;-76
2022/01/20 05:47:44;;;;;;;;;13.75;6.50;;;;;6.53;71.36;102804.78;5057481;28;46520;-76
2022/01/20 05:50:10;;;;;;;;;9.00;7.25;;;;;6.50;71.36;102807.22;5057101;28;45752;-76
2022/01/20 05:52:41;;;;;;;;;5.50;5.50;;;;;6.49;71.48;102807.13;5056325;28;45540;-76
2022/01/20 05:55:10;;;;;;;;;10.00;6.00;;;;;6.47;70.99;102817.53;5057466;28;45358;-76
2022/01/20 05:57:36;;;;;;;;;8.00;6.00;;;;;6.39;71.10;102804.75;5057038;28;47034;-75
2022/01/20 06:00:03;;;;;;;;;9.75;8.50;;;;;6.41;71.39;102816.28;5057104;28;45436;-76
2022/01/20 06:02:35;;;;;;;;;11.50;6.00;;;;;6.40;71.55;102814.47;5056920;28;46024;-76
2022/01/20 06:05:01;;;;;;;;;5.00;5.00;;;;;6.36;71.42;102812.47;5057312;28;45275;-76
2022/01/20 06:07:26;;;;;;;;;9.50;6.50;;;;;6.37;71.33;102809.03;5050047;28;46578;-76
2022/01/20 06:09:52;;;;;;;;;9.75;7.50;;;;;6.37;71.23;102825.66;5051585;28;45544;-76
2022/01/20 06:12:17;;;;;;;;;10.25;9.50;;;;;6.36;71.20;102821.25;5055694;28;58607;-76
2022/01/20 06:14:42;;;;;;;;;6.00;6.00;;;;;6.36;71.41;102822.97;5056657;28;54844;-76
2022/01/20 06:17:08;;;;;;;;;7.00;5.75;;;;;6.38;71.45;102816.97;5056122;28;64053;-76
2022/01/20 06:19:33;;;;;;;;;10.00;8.25;;;;;6.37;71.05;102816.88;5056896;28;45215;-77
2022/01/20 06:21:59;;;;;;;;;11.50;5.75;;;;;6.34;71.15;102815.00;5056607;28;45484;-77
2022/01/20 06:24:24;;;;;;;;;5.75;4.75;;;;;6.35;71.32;102823.78;5055224;28;45554;-77
2022/01/20 06:26:49;;;;;;;;;11.00;6.25;;;;;6.30;71.18;102827.03;5056424;28;58911;-77
2022/01/20 06:29:15;;;;;;;;;12.75;5.00;;;;;6.34;71.25;102829.81;5055629;28;61543;-76
2022/01/20 06:31:40;;;;;;;;;9.75;9.00;;;;;6.34;71.13;102829.81;5056348;28;57020;-78
2022/01/20 06:34:05;;;;;;;;;5.25;5.00;;;;;6.30;71.10;102818.25;5053029;28;45529;-77
2022/01/20 06:36:31;;;;;;;;;8.25;6.00;;;;;6.29;71.01;102834.81;5053335;28;46567;-74
2022/01/20 06:38:56;;;;;;;;;8.75;6.00;;;;;6.28;71.11;102832.97;5055583;28;45395;-77
2022/01/20 06:41:22;;;;;;;;;13.25;7.00;;;;;6.28;71.02;102825.09;5052602;28;45915;-78
2022/01/20 06:43:47;;;;;;;;;9.50;5.00;;;;;6.28;71.00;102843.47;5040276;28;48913;-77
2022/01/20 06:46:12;;;;;;;;;9.00;8.00;;;;;6.26;71.13;102847.72;5051655;28;53900;-79
2022/01/20 06:48:38;;;;;;;;;8.50;8.50;;;;;6.26;71.13;102845.09;5056171;28;45300;-79
2022/01/20 06:51:03;;;;;;;;;10.25;9.75;;;;;6.23;71.04;102848.47;5052659;28;55665;-78
2022/01/20 06:53:29;;;;;;;;;12.25;8.00;;;;;6.22;71.32;102854.50;5055167;28;45599;-80
2022/01/20 06:55:54;;;;;;;;;22.25;12.00;;;;;6.20;71.12;102866.63;5055272;28;59848;-75
2022/01/20 06:58:22;;;;;;;;;11.50;9.75;;;;;6.19;71.20;102866.53;5054703;28;60828;-78
2022/01/20 07:00:48;;;;;;;;;13.00;12.75;;;;;6.19;70.95;102877.94;5056119;28;45267;-75
2022/01/20 07:03:13;;;;;;;;;9.50;9.50;;;;;6.14;70.93;102867.97;5054835;28;55017;-75
2022/01/20 07:05:39;;;;;;;;;14.00;9.25;;;;;6.17;70.98;102889.13;5053685;28;61180;-74
2022/01/20 07:08:04;;;;;;;;;10.00;8.50;;;;;6.09;70.33;102882.50;5051554;28;46352;-77
2022/01/20 07:10:29;;;;;;;;;14.50;7.50;;;;;5.88;71.11;102893.44;5040611;28;52546;-78
2022/01/20 07:12:55;;;;;;;;;9.25;8.00;;;;;5.64;71.53;102895.38;5043318;28;45315;-77
2022/01/20 07:15:20;;;;;;;;;4.25;2.25;;;;;5.50;71.70;102918.09;5047285;28;47212;-77
2022/01/20 07:17:46;;;;;;;;;11.00;9.00;;;;;5.32;71.95;102916.88;5050893;28;56330;-77
2022/01/20 07:20:12;;;;;;;;;9.25;7.00;;;;;5.25;72.84;102928.66;5052440;28;45545;-77
2022/01/20 07:22:37;;;;;;;;;13.75;8.50;;;;;5.08;73.60;102915.28;5049449;28;45611;-78
2022/01/20 07:25:03;;;;;;;;;11.50;6.50;;;;;5.09;74.16;102924.94;5059811;28;47357;-77
2022/01/20 07:27:29;;;;;;;;;8.25;6.00;;;;;5.07;73.60;102916.09;5056205;28;45480;-78
2022/01/20 07:29:54;;;;;;;;;6.50;1.75;;;;;5.08;74.36;102928.38;5056240;28;45546;-75
2022/01/20 07:32:20;;;;;;;;;13.00;9.00;;;;;5.07;73.48;102932.69;5051793;28;55017;-76
2022/01/20 07:34:45;;;;;;;;;11.75;9.00;;;;;5.11;73.81;102926.84;5050921;28;45705;-76
2022/01/20 07:37:10;;;;;;;;;9.25;8.75;;;;;5.24;73.46;102929.47;5061182;28;45536;-76
2022/01/20 07:39:36;;;;;;;;;4.50;2.00;;;;;5.37;73.47;102931.19;5054445;28;50443;-75
2022/01/20 07:42:02;;;;;;;;;17.00;8.75;;;;;5.51;73.47;102942.59;5057212;28;45598;-76
2022/01/20 07:44:27;;;;;;;;;10.75;10.25;;;;;5.62;73.25;102925.84;5061759;28;46999;-76
2022/01/20 07:46:53;;;;;;;;;9.25;9.25;;;;;5.66;73.01;102925.25;5159525;22;58635;-76
2022/01/20 07:49:18;;;;;;;;;8.50;8.50;;;;;5.77;72.64;102924.22;5056317;28;45488;-76
2022/01/20 07:51:44;;;;;;;;;16.00;9.50;;;;;5.85;72.93;102926.41;5068476;28;45743;-76
2022/01/20 07:54:09;;;;;;;;;12.00;8.50;;;;;5.94;72.38;102924.41;5060317;28;47565;-72
2022/01/20 07:56:35;;;;;;;;;14.25;11.50;;;;;5.98;72.28;102929.94;5053874;28;45465;-73
2022/01/20 07:59:00;;;;;;;;;17.75;10.00;;;;;6.07;71.86;102934.84;5056802;28;45561;-73
2022/01/20 08:01:26;;;;;;;;;13.00;8.00;;;;;6.12;72.20;102927.28;5062318;28;47576;-73
2022/01/20 08:03:52;;;;;;;;;16.50;9.75;;;;;6.20;72.02;102932.19;5053732;28;47063;-76
2022/01/20 08:06:18;;;;;;;;;16.00;10.75;;;;;6.23;71.55;102929.78;5051742;28;45771;-74
2022/01/20 08:08:44;;;;;;;;;14.50;9.75;;;;;6.31;71.83;102935.50;5053386;28;45505;-74
2022/01/20 08:11:09;;;;;;;;;12.50;9.25;;;;;6.38;71.78;102932.41;5058694;28;52886;-73
2022/01/20 08:13:34;;;;;;;;;17.75;16.00;;;;;6.46;71.77;102927.66;5054187;28;55764;-74
2022/01/20 08:16:00;;;;;;;;;13.00;10.25;;;;;6.54;71.94;102929.91;5060201;28;61197;-74
2022/01/20 08:18:25;;;;;;;;;23.75;16.75;;;;;6.61;71.27;102939.09;5060886;27;50645;-74
2022/01/20 08:20:50;;;;;;;;;20.50;14.00;;;;;6.68;71.73;102949.16;5056397;28;45341;-74
2022/01/20 08:23:16;;;;;;;;;16.50;11.25;;;;;6.75;71.33;102940.81;5054650;28;59021;-74
2022/01/20 08:25:41;;;;;;;;;10.50;9.25;;;;;6.67;71.27;102926.34;5062814;28;45381;-75
2022/01/20 08:28:07;;;;;;;;;20.50;12.50;;;;;6.84;71.02;102929.97;5064414;28;55887;-74
2022/01/20 08:30:33;;;;;;;;;12.25;9.00;;;;;6.89;70.77;102936.41;5058719;28;45649;-74
2022/01/20 08:32:59;;;;;;;;;16.00;10.25;;;;;6.92;70.85;102936.56;5058353;28;57373;-75
2022/01/20 08:35:25;;;;;;;;;12.25;7.25;;;;;6.92;70.28;102927.78;5062064;27;45611;-75
2022/01/20 08:37:50;;;;;;;;;14.75;7.50;;;;;6.92;70.74;102923.44;5060606;28;47100;-74
2022/01/20 08:40:18;;;;;;;;;9.75;8.50;;;;;7.00;70.55;102940.56;5058682;27;45483;-75
2022/01/20 08:42:47;;;;;;;;;10.75;7.00;;;;;7.03;70.35;102939.84;5061076;28;46653;-74
2022/01/20 08:45:13;;;;;;;;;9.50;7.50;;;;;7.01;69.97;102941.47;5060438;28;45492;-76
2022/01/20 08:47:39;;;;;;;;;10.25;9.25;;;;;7.03;70.08;102940.78;5063737;28;45624;-75
2022/01/20 08:50:05;;;;;;;;;13.75;8.50;;;;;7.06;70.27;102940.94;5050504;28;45504;-74
2022/01/20 08:52:30;;;;;;;;;13.00;9.00;;;;;7.06;69.91;102933.06;5055522;27;49071;-74
2022/01/20 08:54:58;;;;;;;;;15.75;9.00;;;;;7.19;69.98;102941.66;5067068;28;45401;-75
2022/01/20 08:57:26;;;;;;;;;16.00;9.75;;;;;7.23;70.13;102938.38;5067512;27;45535;-74
2022/01/20 08:59:52;;;;;;;;;14.00;11.75;;;;;7.29;69.73;102944.91;5062133;28;45524;-74
2022/01/20 09:02:17;;;;;;;;;20.25;11.00;;;;;7.30;69.81;102937.94;5054753;28;46935;-75
2022/01/20 09:04:43;;;;;;;;;10.50;9.25;;;;;7.39;69.41;102953.31;5056889;28;46057;-74
2022/01/20 09:07:08;;;;;;;;;13.25;8.75;;;;;7.43;69.49;102952.69;5167465;22;46125;-74
2022/01/20 09:09:40;;;;;;;;;20.00;13.50;;;;;7.44;69.50;102952.78;5048127;28;50995;-74
2022/01/20 09:15:27;;;;;;;;;20.00;12.25;;;;;7.48;69.27;102959.13;5045789;28;47553;-74
2022/01/20 09:17:36;;;;;;;;;21.00;12.00;;;;;7.55;69.21;102948.13;5044914;28;45491;-74
2022/01/20 09:20:02;;;;;;;;;10.50;10.00;;;;;7.58;69.16;102956.22;5045753;28;57473;-75
2022/01/20 09:22:29;;;;;;;;;11.00;9.75;;;;;7.61;69.28;102957.25;5052334;28;45767;-74
2022/01/20 09:24:55;;;;;;;;;11.00;10.00;;;;;7.67;69.04;102966.31;5046162;28;45541;-74
2022/01/20 09:27:20;;;;;;;;;16.25;10.50;;;;;7.69;68.95;102980.47;5050146;28;56934;-74
2022/01/20 09:29:46;;;;;;;;;17.75;9.75;;;;;7.72;69.11;102985.91;5049192;28;47796;-74
2022/01/20 09:32:12;;;;;;;;;22.25;11.00;;;;;7.75;68.78;102994.88;5046307;28;47314;-74
2022/01/20 09:34:39;;;;;;;;;21.00;14.75;;;;;7.78;68.57;102983.66;5054514;28;45422;-73
2022/01/20 09:37:04;;;;;;;;;18.75;15.50;;;;;7.81;68.93;103004.84;5045248;28;45548;-75
2022/01/20 09:39:29;;;;;;;;;15.00;10.75;;;;;7.85;68.80;102996.31;5051665;28;52303;-74
2022/01/20 09:41:55;;;;;;;;;15.00;11.00;;;;;7.90;68.76;102992.22;5046621;28;60850;-74
2022/01/20 09:44:20;;;;;;;;;23.25;14.00;;;;;7.93;68.61;102994.09;5050136;28;45530;-74
2022/01/20 09:46:46;;;;;;;;;14.75;13.00;;;;;7.97;68.75;102985.56;5057897;28;45278;-74
2022/01/20 09:49:11;;;;;;;;;16.00;16.00;;;;;8.00;68.71;102991.91;5046232;28;45649;-74
2022/01/20 09:51:38;;;;;;;;;18.25;14.00;;;;;8.03;68.76;102978.91;5049710;28;47109;-74
2022/01/20 09:54:04;;;;;;;;;23.00;19.00;;;;;8.02;68.49;102965.69;5042329;28;47147;-74
2022/01/20 09:56:30;;;;;;;;;18.50;16.00;;;;;8.07;68.48;102980.91;5053352;28;45459;-75
2022/01/20 09:58:55;;;;;;;;;18.00;15.50;;;;;8.10;68.45;102993.34;5050604;28;45382;-74
2022/01/20 10:01:40;;;;;;;;;23.00;17.25;;;;;8.09;68.21;102986.25;5055295;28;63286;-73
2022/01/20 10:04:05;;;;;;;;;18.50;11.25;;;;;8.07;68.46;102987.91;5050651;28;45627;-71
2022/01/20 10:06:31;;;;;;;;;27.00;17.00;;;;;8.02;68.31;102984.09;5045564;28;45855;-73
2022/01/20 10:09:00;;;;;;;;;19.00;12.25;;;;;8.07;68.33;103001.94;5045863;28;45429;-72
2022/01/20 10:11:25;;;;;;;;;24.75;16.00;;;;;8.10;68.39;102999.50;5040973;28;47783;-72
2022/01/20 10:13:51;;;;;;;;;24.00;15.00;;;;;8.10;68.39;102996.88;5054313;28;50914;-71
2022/01/20 10:16:16;;;;;;;;;15.50;15.50;;;;;8.17;68.31;103008.66;5041586;28;54508;-72
2022/01/20 10:18:52;;;;;;;;;20.25;15.50;;;;;8.23;68.38;103014.25;5043734;28;45424;-72
2022/01/20 10:21:18;;;;;;;;;22.50;16.00;;;;;8.24;68.15;103018.69;5051422;28;46613;-73
2022/01/20 10:23:46;;;;;;;;;21.75;15.25;;;;;8.28;68.44;103018.03;5049912;28;45732;-73
2022/01/20 10:26:14;;;;;;;;;14.50;12.00;;;;;8.36;68.41;103022.03;5045131;28;45560;-74
2022/01/20 10:32:46;;;;;;;;;24.00;20.00;;;;;8.47;68.44;103037.50;5048299;28;45731;-73
2022/01/20 10:35:13;;;;;;;;;33.00;20.75;;;;;8.47;68.17;103026.97;4967878;28;45606;-74
2022/01/20 10:37:40;;;;;;;;;23.75;19.75;;;;;8.47;68.36;103032.22;5028897;28;45303;-73
2022/01/20 10:40:07;;;;;;;;;21.50;17.00;;;;;8.49;68.69;103034.13;5045520;28;46843;-73
2022/01/20 10:42:40;;;;;;;;;31.00;22.00;;;;;8.53;68.67;103030.88;5051916;28;47264;-74
2022/01/20 10:45:06;;;;;;;;;29.75;16.00;;;;;8.60;68.59;103030.34;5046850;28;45605;-74
2022/01/20 10:47:33;;;;;;;;;28.00;17.50;;;;;8.75;68.62;103032.94;5054615;28;45493;-74
2022/01/20 10:50:12;;;;;;;;;18.75;18.25;;;;;8.89;68.84;103034.56;5049161;28;45530;-74
2022/01/20 10:52:38;;;;;;;;;21.00;16.25;;;;;9.02;68.55;103035.22;5046815;28;46677;-74
2022/01/20 10:55:06;;;;;;;;;6.00;3.75;;;;;9.07;68.07;103025.81;5049074;28;45344;-74
2022/01/20 10:57:32;;;;;;;;;17.50;16.00;;;;;9.12;68.17;103029.59;5043156;28;45306;-74
2022/01/20 10:59:59;;;;;;;;;16.50;14.25;;;;;9.13;67.83;103013.84;5042583;28;45536;-73
2022/01/20 11:02:29;;;;;;;;;21.50;18.00;;;;;9.12;67.97;103021.69;5039555;28;46699;-74
2022/01/20 11:04:58;;;;;;;;;22.00;18.00;;;;;9.21;67.78;103027.41;5046287;28;45480;-74
2022/01/20 11:07:24;;;;;;;;;15.00;14.25;;;;;9.23;67.72;103025.78;5047032;28;45591;-73
2022/01/20 11:10:04;;;;;;;;;23.25;17.00;;;;;9.20;67.92;103022.97;5043241;28;45523;-73
2022/01/20 11:12:30;;;;;;;;;19.25;15.75;;;;;9.17;67.57;103022.84;5047365;28;47531;-73
2022/01/20 11:14:56;;;;;;;;;18.00;15.00;;;;;9.13;67.80;103028.78;5053501;28;45437;-74
2022/01/20 11:17:24;;;;;;;;;23.25;17.00;;;;;9.08;67.60;103022.34;5052755;28;45511;-73
2022/01/20 11:19:49;;;;;;;;;27.50;18.25;;;;;9.14;67.98;103022.66;5047521;28;45432;-74
2022/01/20 11:22:15;;;;;;;;;20.00;19.50;;;;;9.15;68.16;103013.94;5044846;28;47309;-74
2022/01/20 11:24:44;;;;;;;;;25.00;20.25;;;;;9.24;68.19;103018.78;5052781;28;45539;-73
2022/01/20 11:27:13;;;;;;;;;88.50;69.00;;;;;9.36;68.17;103017.66;5054194;28;45580;-73
2022/01/20 11:29:49;;;;;;;;;73.00;53.50;;;;;9.55;67.99;103018.63;5040538;28;45564;-73
2022/01/20 11:32:22;;;;;;;;;14.50;11.50;;;;;9.66;66.91;103009.50;5047504;28;46936;-74
2022/01/20 11:34:57;;;;;;;;;16.00;12.25;;;;;9.75;67.52;103009.97;5053735;28;45408;-74
2022/01/20 11:37:23;;;;;;;;;13.25;11.25;;;;;9.80;66.73;103012.81;5051480;28;45493;-74
2022/01/20 11:39:54;;;;;;;;;26.75;21.75;;;;;9.82;67.26;103013.81;5049924;28;45441;-74
2022/01/20 11:42:24;;;;;;;;;18.00;13.75;;;;;9.81;66.48;103012.91;5049453;28;46481;-74
2022/01/20 11:44:50;;;;;;;;;14.50;11.50;;;;;9.88;67.06;103016.72;5046952;28;45432;-74
2022/01/20 11:47:15;;;;;;;;;11.00;8.00;;;;;10.02;66.74;103023.59;5049040;28;46591;-74
2022/01/20 11:49:43;;;;;;;;;9.00;7.33;;;;;10.11;66.02;103023.13;5046405;28;45378;-74
2022/01/20 11:52:09;;;;;;;;;9.00;7.25;;;;;10.14;66.20;102999.53;5046130;28;46603;-74
2022/01/20 11:54:36;;;;;;;;;12.67;6.33;;;;;10.24;65.77;103007.06;5046869;28;61375;-74
2022/01/20 11:57:15;;;;;;;;;11.67;6.00;;;;;10.32;65.84;103005.69;5046245;28;45411;-74
2022/01/20 11:59:44;;;;;;;;;35.25;25.25;;;;;10.41;66.09;103021.06;5047610;28;45579;-74
2022/01/20 12:02:10;;;;;;;;;13.00;9.00;;;;;10.48;65.63;103021.41;5048115;28;46240;-74
2022/01/20 12:04:36;;;;;;;;;24.25;16.00;;;;;10.55;65.58;103006.78;5051022;28;45777;-74
2022/01/20 12:07:02;;;;;;;;;14.33;8.00;;;;;10.55;65.58;103013.81;5043957;28;45444;-74
2022/01/20 12:09:35;;;;;;;;;9.33;4.33;;;;;10.62;65.20;103002.66;5048151;28;45432;-74
2022/01/20 12:12:00;;;;;;;;;13.25;12.00;;;;;10.71;64.67;103006.63;5054708;28;47355;-74
2022/01/20 12:14:38;;;;;;;;;10.00;7.00;;;;;10.69;64.32;103013.56;5052596;28;45332;-74
2022/01/20 12:17:11;;;;;;;;;3.33;3.00;;;;;10.80;64.24;103023.72;5056348;28;46003;-74
2022/01/20 12:19:37;;;;;;;;;6.33;4.00;;;;;10.82;64.20;103019.44;5053167;28;45531;-74
2022/01/20 12:22:03;;;;;;;;;6.00;6.00;;;;;10.86;63.84;103011.69;5047597;28;46587;-74
2022/01/20 12:24:29;;;;;;;;;13.33;7.33;;;;;10.88;63.61;103011.78;5046563;28;45238;-74
2022/01/20 12:26:54;;;;;;;;;7.67;5.67;;;;;10.89;64.06;103016.22;5054335;28;58900;-74
2022/01/20 12:29:20;;;;;;;;;6.67;4.00;;;;;10.92;63.93;103006.69;5044098;28;45422;-74